createdAt,value
2022-10-06T00:01:12.221Z,99265.94
2022-10-06T00:03:39.421Z,99265.94
2022-10-06T00:06:06.558Z,99263.34
2022-10-06T00:08:33.681Z,99268.53
2022-10-06T00:11:00.759Z,99266.75
2022-10-06T00:13:27.873Z,99268.53
2022-10-06T00:15:55.013Z,99267.69
2022-10-06T00:18:22.160Z,99270.31
2022-10-06T00:20:49.239Z,99276.41
2022-10-06T00:23:16.950Z,99278.19
2022-10-06T00:25:44.093Z,99270.38
2022-10-06T00:28:11.320Z,99274.75
2022-10-06T00:30:38.548Z,99275.59
2022-10-06T00:33:05.673Z,99278.19
2022-10-06T00:35:33.625Z,99283.38
2022-10-06T00:38:00.766Z,99280.78
2022-10-06T00:40:27.870Z,99283.38
2022-10-06T00:42:54.991Z,99290.34
2022-10-06T00:45:22.078Z,99292.13
2022-10-06T00:47:49.199Z,99295.56
2022-10-06T00:50:16.273Z,99299.09
2022-10-06T00:52:43.361Z,99294.84
2022-10-06T00:55:10.468Z,99300.88
2022-10-06T00:57:37.554Z,99300.03
2022-10-06T01:00:04.652Z,99299.09
2022-10-06T01:02:32.018Z,99294.91
2022-10-06T01:05:00.710Z,99292.22
2022-10-06T01:07:27.778Z,99301.81
2022-10-06T01:09:54.833Z,99306.06
2022-10-06T01:12:22.006Z,99301.81
2022-10-06T01:14:49.106Z,99304.47
2022-10-06T01:17:16.212Z,99300.13
2022-10-06T01:19:43.785Z,99298.44
2022-10-06T01:22:11.100Z,99302.72
2022-10-06T01:24:38.172Z,99309.69
2022-10-06T01:27:05.276Z,99308.84
2022-10-06T01:29:32.417Z,99314.88
2022-10-06T01:31:59.535Z,99318.44
2022-10-06T01:34:26.690Z,99321.88
2022-10-06T01:36:53.789Z,99310.63
2022-10-06T01:39:20.901Z,99321.03
2022-10-06T01:41:47.989Z,99318.44
2022-10-06T01:44:15.067Z,99324.47
2022-10-06T01:46:42.205Z,99323.63
2022-10-06T01:49:09.284Z,99323.69
2022-10-06T01:51:36.380Z,99324.56
2022-10-06T01:54:03.448Z,99323.63
2022-10-06T01:56:30.582Z,99328.00
2022-10-06T01:58:57.673Z,99325.47
2022-10-06T02:01:24.771Z,99326.41
2022-10-06T02:03:52.011Z,99327.25
2022-10-06T02:06:19.156Z,99330.69
2022-10-06T02:08:46.367Z,99336.81
2022-10-06T02:11:13.522Z,99330.78
2022-10-06T02:13:40.665Z,99330.69
2022-10-06T02:16:08.159Z,99335.03
2022-10-06T02:18:35.341Z,99334.22
2022-10-06T02:21:02.425Z,99329.84
2022-10-06T02:23:29.532Z,99332.44
2022-10-06T02:25:56.654Z,99338.59
2022-10-06T02:28:23.764Z,99323.91
2022-10-06T02:30:50.941Z,99324.75
2022-10-06T02:33:18.099Z,99329.94
2022-10-06T02:35:45.282Z,99338.59
2022-10-06T02:38:12.678Z,99329.13
2022-10-06T02:40:39.756Z,99334.31
2022-10-06T02:43:06.838Z,99336.06
2022-10-06T02:45:33.939Z,99343.88
2022-10-06T02:48:01.024Z,99345.63
2022-10-06T02:50:28.096Z,99347.31
2022-10-06T02:52:55.365Z,99346.47
2022-10-06T02:55:22.559Z,99354.25
2022-10-06T02:57:49.639Z,99353.34
2022-10-06T03:00:16.803Z,99351.66
2022-10-06T03:02:44.096Z,99361.22
2022-10-06T03:05:11.320Z,99355.19
2022-10-06T03:07:38.447Z,99364.66
2022-10-06T03:10:05.519Z,99365.59
2022-10-06T03:12:32.623Z,99372.56
2022-10-06T03:14:59.720Z,99382.88
2022-10-06T03:17:26.888Z,99383.81
2022-10-06T03:19:57.027Z,99391.63
2022-10-06T03:22:24.195Z,99399.41
2022-10-06T03:24:51.355Z,99404.63
2022-10-06T03:27:18.531Z,99406.38
2022-10-06T03:29:46.075Z,99418.44
2022-10-06T03:32:13.216Z,99426.34
2022-10-06T03:34:40.278Z,99427.19
2022-10-06T03:37:07.507Z,99432.50
2022-10-06T03:39:34.595Z,99428.13
2022-10-06T03:42:01.675Z,99432.50
2022-10-06T03:44:28.751Z,99438.53
2022-10-06T03:46:55.935Z,99440.28
2022-10-06T03:49:23.046Z,99435.16
2022-10-06T03:51:50.156Z,99439.47
2022-10-06T03:54:17.227Z,99442.06
2022-10-06T03:56:44.309Z,99446.41
2022-10-06T03:59:11.419Z,99454.19
2022-10-06T04:01:38.566Z,99446.41
2022-10-06T04:04:05.755Z,99461.16
2022-10-06T04:06:32.856Z,99460.34
2022-10-06T04:09:00.002Z,99463.78
2022-10-06T04:11:27.089Z,99455.13
2022-10-06T04:13:54.659Z,99454.31
2022-10-06T04:16:22.356Z,99460.34
2022-10-06T04:18:49.475Z,99462.09
2022-10-06T04:21:16.559Z,99465.53
2022-10-06T04:23:43.676Z,99468.16
2022-10-06T04:26:10.783Z,99483.75
2022-10-06T04:28:38.297Z,99479.47
2022-10-06T04:31:05.964Z,99481.16
2022-10-06T04:33:34.182Z,99488.13
2022-10-06T04:36:01.271Z,99482.91
2022-10-06T04:38:29.836Z,99492.47
2022-10-06T04:40:57.514Z,99497.69
2022-10-06T04:43:25.088Z,99497.69
2022-10-06T04:45:52.244Z,99500.28
2022-10-06T04:48:19.394Z,99502.94
2022-10-06T04:50:46.743Z,99498.53
2022-10-06T04:53:13.901Z,99504.66
2022-10-06T04:55:41.385Z,99502.88
2022-10-06T04:58:08.472Z,99506.31
2022-10-06T05:00:35.629Z,99509.84
2022-10-06T05:03:02.787Z,99519.41
2022-10-06T05:05:29.884Z,99516.81
2022-10-06T05:07:57.006Z,99522.03
2022-10-06T05:10:26.403Z,99528.06
2022-10-06T05:12:53.521Z,99527.22
2022-10-06T05:15:20.663Z,99530.72
2022-10-06T05:17:47.807Z,99533.25
2022-10-06T05:20:14.987Z,99540.22
2022-10-06T05:22:42.072Z,99537.63
2022-10-06T05:25:09.275Z,99541.97
2022-10-06T05:27:36.368Z,99552.38
2022-10-06T05:30:03.549Z,99549.75
2022-10-06T05:32:35.787Z,99553.22
2022-10-06T05:35:03.498Z,99560.16
2022-10-06T05:37:30.595Z,99564.47
2022-10-06T05:39:57.660Z,99567.97
2022-10-06T05:42:29.370Z,99565.38
2022-10-06T05:44:56.963Z,99569.72
2022-10-06T05:47:24.046Z,99574.94
2022-10-06T05:49:51.199Z,99574.94
2022-10-06T05:52:18.368Z,99574.94
2022-10-06T05:54:45.788Z,99586.16
2022-10-06T05:57:13.938Z,99586.16
2022-10-06T05:59:41.027Z,99594.84
2022-10-06T06:02:08.184Z,99595.75
2022-10-06T06:04:35.348Z,99596.56
2022-10-06T06:07:02.410Z,99606.97
2022-10-06T06:09:29.529Z,99612.19
2022-10-06T06:11:58.671Z,99616.53
2022-10-06T06:14:44.657Z,99626.94
2022-10-06T06:17:11.759Z,99632.16
2022-10-06T06:19:38.851Z,99631.25
2022-10-06T06:22:05.984Z,99632.16
2022-10-06T06:24:33.141Z,99639.03
2022-10-06T06:27:00.303Z,99648.69
2022-10-06T06:29:27.979Z,99656.31
2022-10-06T06:31:55.081Z,99667.66
2022-10-06T06:34:22.256Z,99673.69
2022-10-06T06:36:53.578Z,99675.44
2022-10-06T06:39:21.540Z,99678.06
2022-10-06T06:41:49.010Z,99681.50
2022-10-06T06:44:16.346Z,99691.91
2022-10-06T06:46:44.794Z,99695.41
2022-10-06T06:49:12.248Z,99693.66
2022-10-06T06:51:40.390Z,99704.06
2022-10-06T06:54:07.538Z,99700.59
2022-10-06T06:56:38.859Z,99700.78
2022-10-06T06:59:09.035Z,99710.16
2022-10-06T07:01:36.254Z,99717.13
2022-10-06T07:04:03.502Z,99719.66
2022-10-06T07:06:30.635Z,99720.50
2022-10-06T07:08:58.020Z,99723.94
2022-10-06T07:11:25.130Z,99727.38
2022-10-06T07:13:52.708Z,99722.06
2022-10-06T07:16:38.171Z,99725.69
2022-10-06T07:19:24.996Z,99737.69
2022-10-06T07:22:10.899Z,99742.88
2022-10-06T07:24:56.824Z,99748.94
2022-10-06T07:27:23.913Z,99755.88
2022-10-06T07:29:55.835Z,99767.16
2022-10-06T07:32:23.252Z,99768.00
2022-10-06T07:34:50.540Z,99778.41
2022-10-06T07:37:18.100Z,99778.28
2022-10-06T07:39:45.196Z,99780.91
2022-10-06T07:42:15.446Z,99780.91
2022-10-06T07:44:42.562Z,99789.63
2022-10-06T07:47:09.650Z,99785.25
2022-10-06T07:49:36.779Z,99796.59
2022-10-06T07:52:03.882Z,99788.78
2022-10-06T07:54:31.459Z,99794.84
2022-10-06T07:56:58.631Z,99798.28
2022-10-06T07:59:25.702Z,99799.09
2022-10-06T08:01:54.872Z,99806.06
2022-10-06T08:04:22.034Z,99814.81
2022-10-06T08:06:49.528Z,99807.84
2022-10-06T08:09:16.613Z,99815.63
2022-10-06T08:11:45.100Z,99827.72
2022-10-06T08:14:15.246Z,99818.25
2022-10-06T08:16:42.485Z,99819.91
2022-10-06T08:19:11.633Z,99822.50
2022-10-06T08:21:39.740Z,99832.91
2022-10-06T08:24:06.877Z,99832.09
2022-10-06T08:26:34.474Z,99833.75
2022-10-06T08:29:03.474Z,99832.00
2022-10-06T08:31:30.798Z,99850.19
2022-10-06T08:33:58.079Z,99855.41
2022-10-06T08:36:31.038Z,99855.41
2022-10-06T08:38:59.615Z,99858.00
2022-10-06T08:41:26.730Z,99854.56
2022-10-06T08:43:53.831Z,99859.69
2022-10-06T08:46:24.596Z,99862.31
2022-10-06T08:48:52.023Z,99862.31
2022-10-06T08:51:19.800Z,99858.00
2022-10-06T08:53:47.141Z,99863.13
2022-10-06T08:56:18.154Z,99870.00
2022-10-06T08:58:45.278Z,99866.56
2022-10-06T09:01:12.407Z,99870.84
2022-10-06T09:03:39.812Z,99870.84
2022-10-06T09:06:06.958Z,99873.44
2022-10-06T09:08:34.082Z,99880.31
2022-10-06T09:11:01.178Z,99874.28
2022-10-06T09:13:28.715Z,99880.31
2022-10-06T09:15:55.849Z,99882.91
2022-10-06T09:18:22.976Z,99880.25
2022-10-06T09:20:51.157Z,99880.16
2022-10-06T09:23:38.244Z,99887.97
2022-10-06T09:26:05.603Z,99893.09
2022-10-06T09:28:33.627Z,99887.97
2022-10-06T09:31:00.835Z,99894.78
2022-10-06T09:33:27.955Z,99893.09
2022-10-06T09:35:55.047Z,99893.84
2022-10-06T09:38:22.616Z,99899.06
2022-10-06T09:40:49.825Z,99894.69
2022-10-06T09:43:16.919Z,99892.03
2022-10-06T09:45:43.998Z,99892.94
2022-10-06T09:48:11.828Z,99889.50
2022-10-06T09:50:39.112Z,99900.66
2022-10-06T09:53:06.326Z,99902.44
2022-10-06T09:55:33.946Z,99907.63
2022-10-06T09:58:01.025Z,99908.47
2022-10-06T10:00:28.209Z,99917.13
2022-10-06T10:02:55.385Z,99912.84
2022-10-06T10:05:23.554Z,99917.13
2022-10-06T10:07:50.639Z,99912.75
2022-10-06T10:10:17.721Z,99912.69
2022-10-06T10:12:45.380Z,99907.53
2022-10-06T10:15:12.482Z,99908.38
2022-10-06T10:17:39.643Z,99909.22
2022-10-06T10:20:08.334Z,99918.78
2022-10-06T10:22:35.446Z,99919.63
2022-10-06T10:25:04.110Z,99911.81
2022-10-06T10:27:31.855Z,99911.75
2022-10-06T10:30:01.612Z,99913.53
2022-10-06T10:32:29.288Z,99917.88
2022-10-06T10:34:56.616Z,99919.56
2022-10-06T10:37:24.277Z,99924.66
2022-10-06T10:39:51.356Z,99918.56
2022-10-06T10:42:18.480Z,99922.91
2022-10-06T10:44:46.462Z,99924.59
2022-10-06T10:47:13.547Z,99920.25
2022-10-06T10:49:40.660Z,99919.16
2022-10-06T10:52:07.744Z,99908.66
2022-10-06T10:54:34.828Z,99918.91
2022-10-06T10:57:01.895Z,99916.25
2022-10-06T10:59:29.687Z,99917.00
2022-10-06T11:01:57.000Z,99916.69
2022-10-06T11:04:25.051Z,99915.59
2022-10-06T11:06:54.349Z,99919.13
2022-10-06T11:09:21.434Z,99918.44
2022-10-06T11:11:52.242Z,99920.22
2022-10-06T11:14:19.677Z,99918.59
2022-10-06T11:16:46.772Z,99926.59
2022-10-06T11:19:14.964Z,99921.34
2022-10-06T11:21:42.920Z,99922.84
2022-10-06T11:24:13.153Z,99925.47
2022-10-06T11:26:40.270Z,99928.91
2022-10-06T11:29:07.359Z,99926.13
2022-10-06T11:31:34.505Z,99920.91
2022-10-06T11:34:01.704Z,99906.03
2022-10-06T11:36:29.381Z,99911.19
2022-10-06T11:38:56.637Z,99921.59
2022-10-06T11:41:23.758Z,99914.53
2022-10-06T11:43:50.831Z,99913.63
2022-10-06T11:46:18.050Z,99913.63
2022-10-06T11:48:46.601Z,99907.53
2022-10-06T11:51:13.715Z,99906.81
2022-10-06T11:53:40.949Z,99895.78
2022-10-06T11:56:08.137Z,99898.59
2022-10-06T11:58:42.264Z,99893.19
2022-10-06T12:01:09.900Z,99891.91
2022-10-06T12:03:37.048Z,99889.09
2022-10-06T12:06:04.186Z,99889.91
2022-10-06T12:08:31.378Z,99896.78
2022-10-06T12:10:58.503Z,99886.53
2022-10-06T12:14:15.637Z,99886.47
2022-10-06T12:19:00.132Z,99886.28
2022-10-06T12:21:27.798Z,99890.75
2022-10-06T12:23:54.885Z,99886.38
2022-10-06T12:26:21.978Z,99877.63
2022-10-06T12:28:49.077Z,99877.56
2022-10-06T12:31:18.462Z,99881.94
2022-10-06T12:33:45.774Z,99878.00
2022-10-06T12:36:12.850Z,99873.28
2022-10-06T12:38:43.328Z,99865.56
2022-10-06T12:41:10.402Z,99868.16
2022-10-06T12:43:37.780Z,99863.91
2022-10-06T12:46:07.544Z,99862.13
2022-10-06T12:48:34.779Z,99866.41
2022-10-06T12:51:02.995Z,99857.75
2022-10-06T12:53:32.836Z,99858.59
2022-10-06T12:56:02.095Z,99863.78
2022-10-06T12:58:29.320Z,99866.41
2022-10-06T13:00:56.439Z,99856.91
2022-10-06T13:03:24.521Z,99866.41
2022-10-06T13:05:51.861Z,99865.56
2022-10-06T13:08:18.950Z,99862.03
2022-10-06T13:10:46.058Z,99862.97
2022-10-06T13:13:13.164Z,99863.13
2022-10-06T13:15:41.596Z,99869.25
2022-10-06T13:18:08.684Z,99871.91
2022-10-06T13:20:36.455Z,99867.63
2022-10-06T13:23:04.920Z,99865.03
2022-10-06T13:25:33.621Z,99869.31
2022-10-06T13:28:02.397Z,99859.75
2022-10-06T13:30:29.849Z,99862.34
2022-10-06T13:32:58.191Z,99857.16
2022-10-06T13:35:25.277Z,99861.50
2022-10-06T13:37:52.443Z,99856.97
2022-10-06T13:40:21.867Z,99861.09
2022-10-06T13:42:55.912Z,99862.13
2022-10-06T13:45:23.007Z,99865.47
2022-10-06T13:47:50.161Z,99856.72
2022-10-06T13:50:19.919Z,99853.28
2022-10-06T13:52:48.826Z,99854.31
2022-10-06T13:55:16.080Z,99863.13
2022-10-06T13:57:43.239Z,99864.09
2022-10-06T14:00:10.310Z,99863.34
2022-10-06T14:02:37.477Z,99853.88
2022-10-06T14:05:04.578Z,99861.69
2022-10-06T14:07:31.738Z,99862.59
2022-10-06T14:09:58.831Z,99859.97
2022-10-06T14:12:25.986Z,99861.84
2022-10-06T14:14:53.126Z,99864.44
2022-10-06T14:17:20.226Z,99861.00
2022-10-06T14:19:47.419Z,99861.06
2022-10-06T14:22:14.519Z,99861.91
2022-10-06T14:24:41.590Z,99859.31
2022-10-06T14:27:08.823Z,99861.06
2022-10-06T14:29:37.982Z,99850.66
2022-10-06T14:32:05.199Z,99853.25
2022-10-06T14:34:32.379Z,99855.03
2022-10-06T14:36:59.453Z,99862.00
2022-10-06T14:39:28.445Z,99859.41
2022-10-06T14:41:55.581Z,99861.25
2022-10-06T14:44:22.711Z,99860.25
2022-10-06T14:46:50.278Z,99856.03
2022-10-06T14:49:17.609Z,99857.72
2022-10-06T14:51:44.694Z,99859.41
2022-10-06T14:54:12.338Z,99853.53
2022-10-06T14:56:39.544Z,99859.47
2022-10-06T14:59:06.672Z,99856.88
2022-10-06T15:01:33.747Z,99855.19
2022-10-06T15:04:00.901Z,99854.25
2022-10-06T15:06:47.012Z,99858.63
2022-10-06T15:09:14.111Z,99857.06
2022-10-06T15:11:41.183Z,99857.06
2022-10-06T15:14:08.796Z,99852.69
2022-10-06T15:16:37.437Z,99853.63
2022-10-06T15:19:05.603Z,99851.09
2022-10-06T15:21:33.126Z,99853.44
2022-10-06T15:24:00.221Z,99854.09
2022-10-06T15:26:46.331Z,99852.34
2022-10-06T15:29:13.577Z,99851.44
2022-10-06T15:31:40.733Z,99847.06
2022-10-06T15:34:07.852Z,99853.09
2022-10-06T15:36:36.325Z,99849.66
2022-10-06T15:39:03.431Z,99845.38
2022-10-06T15:41:30.528Z,99847.72
2022-10-06T15:43:57.725Z,99850.41
2022-10-06T15:46:27.957Z,99856.47
2022-10-06T15:48:55.084Z,99849.72
2022-10-06T15:51:22.402Z,99849.00
2022-10-06T15:53:50.497Z,99849.81
2022-10-06T15:56:17.630Z,99850.75
2022-10-06T15:58:44.729Z,99853.38
2022-10-06T16:01:11.947Z,99848.06
2022-10-06T16:03:41.309Z,99848.06
2022-10-06T16:06:08.903Z,99853.38
2022-10-06T16:08:36.101Z,99852.09
2022-10-06T16:11:03.248Z,99851.78
2022-10-06T16:13:30.387Z,99855.44
2022-10-06T16:15:57.684Z,99864.28
2022-10-06T16:18:24.794Z,99856.53
2022-10-06T16:20:51.916Z,99860.09
2022-10-06T16:23:19.024Z,99858.31
2022-10-06T16:25:46.185Z,99862.59
2022-10-06T16:28:13.443Z,99859.25
2022-10-06T16:30:40.577Z,99867.06
2022-10-06T16:33:07.799Z,99862.75
2022-10-06T16:35:34.879Z,99860.16
2022-10-06T16:38:01.985Z,99854.94
2022-10-06T16:40:29.315Z,99854.03
2022-10-06T16:42:56.381Z,99854.88
2022-10-06T16:45:23.491Z,99856.53
2022-10-06T16:47:50.607Z,99855.81
2022-10-06T16:50:17.695Z,99859.25
2022-10-06T16:52:44.767Z,99867.06
2022-10-06T16:55:11.885Z,99862.69
2022-10-06T16:57:38.958Z,99860.81
2022-10-06T17:00:06.081Z,99862.41
2022-10-06T17:02:34.087Z,99864.06
2022-10-06T17:05:01.233Z,99860.63
2022-10-06T17:07:28.447Z,99858.00
2022-10-06T17:10:18.444Z,99865.63
2022-10-06T17:12:42.924Z,99861.28
2022-10-06T17:15:10.321Z,99867.34
2022-10-06T17:17:37.749Z,99860.34
2022-10-06T17:20:05.043Z,99866.50
2022-10-06T17:22:32.181Z,99869.94
2022-10-06T17:25:00.633Z,99872.53
2022-10-06T17:27:30.285Z,99877.66
2022-10-06T17:29:57.366Z,99867.34
2022-10-06T17:32:25.842Z,99870.84
2022-10-06T17:34:55.309Z,99876.81
2022-10-06T17:37:22.673Z,99876.81
2022-10-06T17:39:49.754Z,99877.66
2022-10-06T17:42:16.889Z,99876.81
2022-10-06T17:44:44.788Z,99885.56
2022-10-06T17:47:12.322Z,99888.16
2022-10-06T17:49:40.171Z,99885.47
2022-10-06T17:52:07.331Z,99890.66
2022-10-06T17:54:34.486Z,99888.06
2022-10-06T17:57:01.628Z,99888.75
2022-10-06T17:59:28.931Z,99882.97
2022-10-06T18:01:56.833Z,99887.41
2022-10-06T18:04:24.035Z,99883.97
2022-10-06T18:06:51.511Z,99879.69
2022-10-06T18:09:18.666Z,99882.28
2022-10-06T18:11:54.597Z,99877.09
2022-10-06T18:14:21.791Z,99879.69
2022-10-06T18:16:52.226Z,99884.91
2022-10-06T18:19:25.842Z,99887.53
2022-10-06T18:21:52.954Z,99881.47
2022-10-06T18:24:20.989Z,99879.72
2022-10-06T18:26:48.307Z,99891.06
2022-10-06T18:29:15.381Z,99884.91
2022-10-06T18:31:42.723Z,99887.63
2022-10-06T18:36:56.911Z,99895.53
2022-10-06T18:39:25.402Z,99895.53
2022-10-06T18:41:52.548Z,99886.78
2022-10-06T18:44:39.588Z,99881.59
2022-10-06T18:47:25.274Z,99885.84
2022-10-06T18:49:52.955Z,99895.44
2022-10-06T18:52:21.653Z,99893.75
2022-10-06T18:54:49.012Z,99889.38
2022-10-06T18:57:16.179Z,99891.16
2022-10-06T18:59:43.429Z,99894.66
2022-10-06T19:02:11.022Z,99897.25
2022-10-06T19:04:39.370Z,99894.75
2022-10-06T19:07:06.457Z,99895.53
2022-10-06T19:09:33.527Z,99895.53
2022-10-06T19:12:01.855Z,99908.16
2022-10-06T19:14:31.099Z,99899.72
2022-10-06T19:16:59.069Z,99905.06
2022-10-06T19:19:26.544Z,99909.38
2022-10-06T19:21:53.950Z,99903.13
2022-10-06T19:24:21.076Z,99909.22
2022-10-06T19:26:48.201Z,99912.00
2022-10-06T19:29:15.701Z,99907.63
2022-10-06T19:31:42.835Z,99907.88
2022-10-06T19:34:11.836Z,99909.53
2022-10-06T19:36:38.944Z,99900.91
2022-10-06T19:39:06.046Z,99898.34
2022-10-06T19:41:51.724Z,99892.41
2022-10-06T19:44:18.862Z,99901.06
2022-10-06T19:46:45.943Z,99899.44
2022-10-06T19:49:13.707Z,99897.78
2022-10-06T19:51:41.361Z,99908.34
2022-10-06T19:54:08.541Z,99905.84
2022-10-06T19:56:35.606Z,99915.41
2022-10-06T19:59:03.374Z,99909.34
2022-10-06T20:01:31.280Z,99913.81
2022-10-06T20:03:58.622Z,99914.75
2022-10-06T20:06:26.528Z,99911.38
2022-10-06T20:08:54.099Z,99914.91
2022-10-06T20:11:21.235Z,99910.63
2022-10-06T20:13:48.462Z,99908.91
2022-10-06T20:16:17.308Z,99919.34
2022-10-06T20:18:44.929Z,99912.47
2022-10-06T20:21:13.166Z,99911.63
2022-10-06T20:23:40.235Z,99919.44
2022-10-06T20:26:07.303Z,99910.78
2022-10-06T20:28:34.436Z,99912.63
2022-10-06T20:31:01.644Z,99915.31
2022-10-06T20:33:29.345Z,99915.31
2022-10-06T20:35:56.466Z,99915.31
2022-10-06T20:38:43.522Z,99922.28
2022-10-06T20:41:10.612Z,99911.94
2022-10-06T20:43:37.995Z,99910.25
2022-10-06T20:46:05.128Z,99917.22
2022-10-06T20:48:32.338Z,99912.97
2022-10-06T20:50:59.750Z,99905.22
2022-10-06T20:53:26.811Z,99910.34
2022-10-06T20:55:56.469Z,99908.66
2022-10-06T20:58:25.229Z,99906.97
2022-10-06T21:00:52.292Z,99906.97
2022-10-06T21:03:19.402Z,99913.13
2022-10-06T21:05:46.478Z,99902.78
2022-10-06T21:08:13.529Z,99896.72
2022-10-06T21:10:40.588Z,99894.97
2022-10-06T21:13:07.665Z,99897.66
2022-10-06T21:15:34.793Z,99892.47
2022-10-06T21:18:02.543Z,99895.06
2022-10-06T21:20:29.715Z,99897.75
2022-10-06T21:22:56.784Z,99900.34
2022-10-06T21:25:23.925Z,99893.44
2022-10-06T21:27:50.980Z,99901.19
2022-10-06T21:30:18.054Z,99896.88
2022-10-06T21:32:45.153Z,99888.34
2022-10-06T21:35:12.549Z,99890.94
2022-10-06T21:37:40.157Z,99886.66
2022-10-06T21:40:07.258Z,99885.81
2022-10-06T21:42:34.346Z,99889.31
2022-10-06T21:45:01.431Z,99884.13
2022-10-06T21:47:28.606Z,99885.91
2022-10-06T21:49:55.731Z,99882.47
2022-10-06T21:52:22.849Z,99876.41
2022-10-06T21:54:49.965Z,99879.03
2022-10-06T21:57:17.053Z,99882.47
2022-10-06T21:59:44.126Z,99875.59
2022-10-06T22:02:11.306Z,99873.88
2022-10-06T22:04:38.645Z,99876.41
2022-10-06T22:07:05.782Z,99871.38
2022-10-06T22:09:33.013Z,99872.22
2022-10-06T22:12:00.090Z,99870.53
2022-10-06T22:14:27.161Z,99871.38
2022-10-06T22:16:54.275Z,99867.09
2022-10-06T22:19:21.509Z,99859.28
2022-10-06T22:21:48.653Z,99861.13
2022-10-06T22:24:15.753Z,99868.94
2022-10-06T22:26:42.815Z,99861.97
2022-10-06T22:29:12.950Z,99856.75
2022-10-06T22:31:40.105Z,99854.25
2022-10-06T22:34:07.787Z,99849.03
2022-10-06T22:36:34.929Z,99854.25
2022-10-06T22:39:02.037Z,99852.47
2022-10-06T22:41:29.160Z,99847.38
2022-10-06T22:43:57.549Z,99843.91
2022-10-06T22:46:24.909Z,99843.91
2022-10-06T22:48:52.043Z,99843.06
2022-10-06T22:51:19.175Z,99844.00
2022-10-06T22:53:46.301Z,99841.41
2022-10-06T22:56:13.361Z,99836.19
2022-10-06T22:58:40.502Z,99835.34
2022-10-06T23:01:07.639Z,99834.53
2022-10-06T23:03:34.840Z,99834.53
2022-10-06T23:06:01.995Z,99836.28
2022-10-06T23:08:34.127Z,99833.69
2022-10-06T23:11:02.091Z,99826.78
2022-10-06T23:13:29.157Z,99823.34
2022-10-06T23:15:56.301Z,99829.38
2022-10-06T23:18:23.376Z,99819.91
2022-10-06T23:20:50.497Z,99815.53
2022-10-06T23:23:17.560Z,99812.09
2022-10-06T23:25:45.508Z,99808.69
2022-10-06T23:28:12.620Z,99807.84
2022-10-06T23:30:39.801Z,99805.22
2022-10-06T23:33:06.883Z,99804.41
2022-10-06T23:35:33.948Z,99803.56
2022-10-06T23:38:01.038Z,99809.59
2022-10-06T23:40:28.103Z,99811.38
2022-10-06T23:42:55.173Z,99803.56
2022-10-06T23:45:22.366Z,99796.66
2022-10-06T23:47:49.545Z,99797.50
2022-10-06T23:50:16.634Z,99796.66
2022-10-06T23:52:43.760Z,99795.81
2022-10-06T23:55:10.860Z,99806.22
2022-10-06T23:57:37.989Z,99805.41
